SKCL/CLO METAR and TAF weather

Enter ICAO airport designator
Station Type Date Time Source
SKCL METAR 2020/11/27 03:00 UTC NOAA

SKCL 270300Z 31007KT 9999 FEW030 BKN120 24/18 A2999 NOSIG


Station Type Date Time Source
SKCL Decoded METAR 2020/11/27 03:00 UTC NOAA

Cali / Alfonso Bonillaaragon, Colombia (SKCL) 03-33N 076-23W 969M
Nov 26, 2020 - 10:00 PM EST / 2020.11.27 0300 UTC
Wind: from the NW (310 degrees) at 8 MPH (7 KT):0
Visibility: greater than 7 mile(s):0
Sky conditions: mostly cloudy
Temperature: 75 F (24 C)
Dew Point: 64 F (18 C)
Relative Humidity: 69%
Pressure (altimeter): 29.99 in. Hg (1015 hPa)
ob: SKCL 270300Z 31007KT 9999 FEW030 BKN120 24/18 A2999 NOSIG
cycle: 3

Station Type Date Time Source
SKCL TAF 2020/11/27 00:00 UTC NOAA

TAF SKCL 262230Z 2700/2724 34010KT 9999 SCT030TCU SCT200
BECMG 2703/2704 VRB02KT FEW020 BKN120
BECMG 2719/2720 31010KT SCT020TCU SCT120 PROB40
TEMPO 2720/2723 TS SCT017CB TX31/2719Z TN18/2711Z

Example: see airport list